Impacts METAR Board
IDs:

KMDW - Chicago/Midway Intl, IL, US

Updated at: 0800 UTC 25 May 2020
Potential Impact None Slight Moderate High
Time 24/20Z 24/21Z 24/22Z 24/23Z 25/00Z 25/01Z 25/02Z 25/03Z 25/04Z 25/05Z 25/06Z 25/07Z 25/08Z
Temp87 88 89 84 83 80 79 81 79 75 74 72 71
Dewpt63 64 63 66 65 65 65 66 65 66 65 66 67
Altim29.91 29.89 29.88 29.85 29.86 29.86 29.89 29.90 29.91 29.90 29.92 29.93 29.90
VIS10 10 10 10 10 10 10 10 10 10 10 10 10
CIG250 250 250 250 250 250 250 250 250 250 250 250 210
CoverBKNBKNBKNBKNBKNBKNBKNOVCOVCBKNBKNBKNBKN
FltCatVFRVFRVFRVFRVFRVFRVFRVFRVFRVFRVFRVFRVFR
WX--------------------------
WDir24020019090120120150190200160180200180
WSpd4 7 4 9 8 8 7 8 11 4 11 10 6
WGst-- -- -- -- -- -- -- -- 19 -- 21 -- --
Raw hourly METARs
KMDW 241953Z 24004KT 10SM FEW050 BKN250 31/17 A2991 RMK AO2 SLP117 T03060172 $
KMDW 242053Z 20007KT 10SM FEW055 BKN250 31/18 A2989 RMK AO2 SLP112 T03110178 58012 $
KMDW 242153Z 19004KT 10SM SCT060 BKN250 32/17 A2988 RMK AO2 SLP108 T03170172 $
KMDW 242253Z 09009KT 10SM FEW060 BKN250 29/19 A2985 RMK AO2 SLP101 T02890189 $
KMDW 242353Z 12008KT 10SM FEW060 BKN250 28/18 A2986 RMK AO2 SLP103 T02830183 10317 20283 55009 $
KMDW 250053Z 12008KT 10SM FEW060 BKN250 27/18 A2986 RMK AO2 LTG DSNT S SLP102 CB DSNT S T02670183 $
KMDW 250153Z 15007KT 10SM FEW060 BKN250 26/18 A2989 RMK AO2 SLP111 T02610183 $
KMDW 250253Z 19008KT 10SM FEW060 OVC250 27/19 A2990 RMK AO2 SLP116 T02720189 53014 $
KMDW 250353Z 20011G19KT 10SM FEW060 OVC250 26/18 A2991 RMK AO2 SLP117 T02610183 $
KMDW 250453Z 16004KT 10SM BKN250 24/19 A2990 RMK AO2 SLP115 T02390189 $
KMDW 250553Z 18011G21KT 10SM BKN250 23/18 A2992 RMK AO2 SLP122 T02330183 10283 20233 403170178 53006 $
KMDW 250653Z 20010KT 10SM BKN250 22/19 A2993 RMK AO2 SLP122 T02220189 $
KMDW 250753Z 18006KT 10SM BKN210 BKN250 22/19 A2990 RMK AO2 SLP116 T02170194 $



Page loaded:  08:18 UTC  |   01:18 AM Pacific  |   02:18 AM Mountain  |   03:18 AM Central  |   04:18 AM Eastern

 

ADVISORIES

FORECASTS

FORECASTS

OBSERVATIONS

USER TOOLS

ABOUT US